Time;durP1;ratioP1;P1;durP2;ratioP2;P2;SDS_P1;SDS_P2;PMS_P1;PMS_P2;Temp;Humidity;BMP_temperature;BMP_pressure;BME280_temperature;BME280_humidity;BME280_pressure;Samples;Min_cycle;Max_cycle;Signal;HPM_P1;HPM_P2
2024/04/03 00:00:29;;;;;;;2.90;2.00;;;;;;;;;;5969596;23;20485;-85
2024/04/03 00:06:57;;;;;;;3.70;1.43;;;;;;;;;;6039961;23;20458;-88
2024/04/03 00:10:33;;;;;;;1.83;1.30;;;;;;;;;;6110442;23;20413;-87
2024/04/03 00:13:25;;;;;;;2.63;1.30;;;;;;;;;;6076430;23;20476;-85
2024/04/03 00:16:33;;;;;;;2.07;1.10;;;;;;;;;;6043023;23;20416;-86
2024/04/03 00:25:05;;;;;;;1.60;1.30;;;;;;;;;;6136081;23;20438;-85
2024/04/03 00:27:57;;;;;;;3.43;1.30;;;;;;;;;;6108877;23;20403;-86
2024/04/03 00:30:30;;;;;;;3.03;1.30;;;;;;;;;;6101293;23;20430;-84
2024/04/03 00:33:03;;;;;;;3.53;1.30;;;;;;;;;;6108253;23;21271;-88
2024/04/03 00:35:59;;;;;;;2.40;1.33;;;;;;;;;;6088980;23;20471;-85
2024/04/03 00:46:08;;;;;;;3.20;1.10;;;;;;;;;;6098610;23;20394;-88
2024/04/03 01:02:03;;;;;;;2.43;1.40;;;;;;;;;;5908350;24;21475;-85
2024/04/03 01:04:32;;;;;;;2.93;1.97;;;;;;;;;;6042613;23;20400;-88
2024/04/03 01:10:14;;;;;;;1.20;1.03;;;;;;;;;;6116104;23;20424;-85
2024/04/03 01:13:28;;;;;;;1.57;1.10;;;;;;;;;;6137482;23;20391;-85
2024/04/03 01:16:34;;;;;;;2.03;0.83;;;;;;;;;;6091427;23;20400;-88
2024/04/03 01:20:12;;;;;;;;;;;;;;;;;;;;;
2024/04/03 01:26:33;;;;;;;1.50;1.40;;;;;;;;;;6149623;23;20497;-86
2024/04/03 01:29:22;;;;;;;2.73;1.60;;;;;;;;;;6184866;23;20498;-88
2024/04/03 01:32:03;;;;;;;2.70;1.80;;;;;;;;;;6183460;23;20514;-86
2024/04/03 01:34:56;;;;;;;2.37;1.20;;;;;;;;;;6097799;23;20438;-87
2024/04/03 01:40:33;;;;;;;;;;;;;;;;;;;;;
2024/04/03 01:43:58;;;;;;;1.47;1.37;;;;;;;;;;6127829;23;20459;-87
2024/04/03 01:46:27;;;;;;;1.80;1.50;;;;;;;;;;6125824;23;20459;-89
2024/04/03 01:52:43;;;;;;;4.03;2.10;;;;;;;;;;6124329;23;20475;-87
2024/04/03 01:55:16;;;;;;;3.33;1.60;;;;;;;;;;6105564;23;20468;-86
2024/04/03 02:03:25;;;;;;;5.77;1.87;;;;;;;;;;6204833;23;20445;-87
2024/04/03 02:06:00;;;;;;;3.80;1.90;;;;;;;;;;6136398;23;20439;-87
2024/04/03 02:08:44;;;;;;;3.50;1.70;;;;;;;;;;6147543;23;20500;-85
2024/04/03 02:11:33;;;;;;;3.00;1.97;;;;;;;;;;6140736;23;20432;-86
2024/04/03 02:14:06;;;;;;;9.30;4.40;;;;;;;;;;6092725;23;20469;-85
2024/04/03 02:16:49;;;;;;;2.90;1.97;;;;;;;;;;6102700;23;20498;-86
2024/04/03 02:19:18;;;;;;;1.60;1.50;;;;;;;;;;6136874;23;20509;-84
2024/04/03 02:21:49;;;;;;;3.37;1.60;;;;;;;;;;6155241;23;20493;-88
2024/04/03 02:24:54;;;;;;;;;;;;;;;;;;;;;
2024/04/03 02:27:51;;;;;;;3.30;1.47;;;;;;;;;;6151942;23;20466;-85
2024/04/03 02:30:34;;;;;;;2.63;1.67;;;;;;;;;;6116335;23;20433;-86
2024/04/03 02:33:12;;;;;;;6.47;2.40;;;;;;;;;;6110672;23;20394;-86
2024/04/03 02:36:12;;;;;;;;;;;;;;;;;;;;;
2024/04/03 02:38:48;;;;;;;3.33;1.70;;;;;;;;;;6124881;23;20416;-87
2024/04/03 02:41:41;;;;;;;3.63;1.80;;;;;;;;;;6136918;23;20419;-85
2024/04/03 02:44:34;;;;;;;5.10;2.10;;;;;;;;;;6128633;23;20478;-85
2024/04/03 02:47:09;;;;;;;3.20;1.73;;;;;;;;;;6100919;23;20403;-86
2024/04/03 02:49:53;;;;;;;3.33;2.00;;;;;;;;;;6113165;23;20399;-86
2024/04/03 02:52:59;;;;;;;2.97;1.37;;;;;;;;;;6110653;23;20399;-85
2024/04/03 02:55:39;;;;;;;3.77;1.47;;;;;;;;;;6135693;23;20709;-85
2024/04/03 02:58:26;;;;;;;2.53;1.57;;;;;;;;;;6108818;23;20874;-85
2024/04/03 03:01:11;;;;;;;2.77;1.90;;;;;;;;;;6136460;23;20455;-86
2024/04/03 03:03:52;;;;;;;3.37;1.37;;;;;;;;;;6160249;23;20422;-85
2024/04/03 03:06:24;;;;;;;2.10;1.60;;;;;;;;;;6112942;23;20399;-86
2024/04/03 03:12:22;;;;;;;2.30;1.80;;;;;;;;;;6178711;23;20494;-87
2024/04/03 03:14:52;;;;;;;3.23;1.70;;;;;;;;;;6126535;23;20489;-87
2024/04/03 03:20:51;;;;;;;3.60;1.60;;;;;;;;;;6177787;23;20462;-87
2024/04/03 03:23:29;;;;;;;3.97;1.57;;;;;;;;;;6130916;23;20466;-88
2024/04/03 03:26:01;;;;;;;3.33;1.47;;;;;;;;;;6154400;23;20492;-87
2024/04/03 03:28:34;;;;;;;1.77;1.63;;;;;;;;;;6175655;23;20494;-87
2024/04/03 03:31:15;;;;;;;4.10;1.80;;;;;;;;;;6155364;23;20497;-86
2024/04/03 03:33:59;;;;;;;5.13;1.50;;;;;;;;;;6128706;23;20466;-86
2024/04/03 03:36:44;;;;;;;4.23;2.00;;;;;;;;;;6129196;23;20478;-88
2024/04/03 03:39:27;;;;;;;4.50;1.80;;;;;;;;;;6148577;23;20542;-88
2024/04/03 03:42:05;;;;;;;4.47;1.97;;;;;;;;;;6129267;23;20597;-87
2024/04/03 03:47:58;;;;;;;3.60;2.00;;;;;;;;;;6178709;23;20466;-87
2024/04/03 03:53:37;;;;;;;7.00;1.80;;;;;;;;;;6119536;23;20406;-86
2024/04/03 03:56:52;;;;;;;4.73;1.97;;;;;;;;;;6107128;23;20403;-86
2024/04/03 03:59:18;;;;;;;6.53;1.43;;;;;;;;;;6117409;23;20955;-85
2024/04/03 04:02:07;;;;;;;;;;;;;;;;;;;;;
2024/04/03 04:04:42;;;;;;;1.73;1.30;;;;;;;;;;6170175;23;20394;-88
2024/04/03 04:10:10;;;;;;;4.00;1.73;;;;;;;;;;6137798;23;20427;-86
2024/04/03 04:12:53;;;;;;;2.70;1.83;;;;;;;;;;6112965;23;20408;-86
2024/04/03 04:15:27;;;;;;;5.60;2.20;;;;;;;;;;6118735;23;20457;-88
2024/04/03 04:18:14;;;;;;;5.80;1.97;;;;;;;;;;6128347;23;20402;-86
2024/04/03 04:21:22;;;;;;;4.70;2.20;;;;;;;;;;6133020;23;20509;-87
2024/04/03 04:23:59;;;;;;;5.07;2.40;;;;;;;;;;6134578;23;20462;-86
2024/04/03 04:26:49;;;;;;;5.97;2.70;;;;;;;;;;6182892;23;20474;-86
2024/04/03 04:29:18;;;;;;;10.07;2.57;;;;;;;;;;6130073;23;20470;-86
2024/04/03 04:32:04;;;;;;;4.47;1.93;;;;;;;;;;6154983;23;20506;-85
2024/04/03 04:34:41;;;;;;;6.70;2.10;;;;;;;;;;6134376;23;20446;-86
2024/04/03 04:37:13;;;;;;;2.63;1.90;;;;;;;;;;6129425;23;20466;-88
2024/04/03 04:39:52;;;;;;;4.30;2.13;;;;;;;;;;6131891;23;20514;-89
2024/04/03 04:42:35;;;;;;;4.40;1.90;;;;;;;;;;6131048;23;20466;-87
2024/04/03 04:45:21;;;;;;;3.40;2.20;;;;;;;;;;6118736;23;20421;-86
2024/04/03 04:47:54;;;;;;;2.30;1.47;;;;;;;;;;6116252;23;20403;-87
2024/04/03 04:50:21;;;;;;;4.80;2.40;;;;;;;;;;6140690;23;20437;-86
2024/04/03 04:53:07;;;;;;;6.23;2.37;;;;;;;;;;6130931;23;20485;-87
2024/04/03 04:55:41;;;;;;;5.20;2.00;;;;;;;;;;6115965;23;20415;-87
2024/04/03 04:58:17;;;;;;;4.43;2.23;;;;;;;;;;6162330;23;20417;-86
2024/04/03 05:03:48;;;;;;;4.00;1.87;;;;;;;;;;6045410;23;20406;-87
2024/04/03 05:06:32;;;;;;;3.00;1.53;;;;;;;;;;6021776;23;20414;-86
2024/04/03 05:09:12;;;;;;;;;;;;;;;;;;;;;
2024/04/03 05:12:02;;;;;;;4.00;1.80;;;;;;;;;;6139057;23;20419;-86
2024/04/03 05:14:41;;;;;;;3.73;1.63;;;;;;;;;;6114786;23;20409;-86
2024/04/03 05:17:15;;;;;;;2.03;1.50;;;;;;;;;;6118765;23;20395;-86
2024/04/03 05:20:09;;;;;;;5.17;1.53;;;;;;;;;;6130278;23;20504;-84
2024/04/03 05:22:56;;;;;;;3.00;1.77;;;;;;;;;;6132115;23;20478;-86
2024/04/03 05:25:51;;;;;;;2.70;2.20;;;;;;;;;;6116789;23;20486;-87
2024/04/03 05:28:29;;;;;;;2.10;1.67;;;;;;;;;;6153335;23;20458;-87
2024/04/03 05:31:32;;;;;;;6.20;1.70;;;;;;;;;;6119256;23;20513;-87
2024/04/03 05:34:09;;;;;;;1.53;1.40;;;;;;;;;;6117486;23;20421;-85
2024/04/03 05:37:07;;;;;;;5.43;3.03;;;;;;;;;;6114857;23;20437;-85
2024/04/03 05:39:43;;;;;;;2.53;1.63;;;;;;;;;;6117003;23;20451;-87
2024/04/03 05:42:30;;;;;;;5.93;1.83;;;;;;;;;;6121438;23;20398;-86
2024/04/03 05:45:39;;;;;;;3.10;1.70;;;;;;;;;;6109625;23;20407;-85
2024/04/03 05:48:25;;;;;;;6.47;3.50;;;;;;;;;;6101159;23;20416;-85
2024/04/03 05:54:48;;;;;;;;;;;;;;;;;;;;;
2024/04/03 05:57:28;;;;;;;2.80;1.70;;;;;;;;;;6135969;23;20411;-85
2024/04/03 05:59:59;;;;;;;2.30;1.50;;;;;;;;;;6111713;23;20450;-86
2024/04/03 06:02:41;;;;;;;2.97;2.13;;;;;;;;;;6120193;23;20403;-85
2024/04/03 06:05:37;;;;;;;4.97;2.13;;;;;;;;;;6136289;23;20399;-87
2024/04/03 06:08:39;;;;;;;5.70;2.20;;;;;;;;;;6134005;23;20421;-86
2024/04/03 06:11:39;;;;;;;4.23;2.07;;;;;;;;;;6139289;23;20415;-86
2024/04/03 06:14:56;;;;;;;;;;;;;;;;;;;;;
2024/04/03 06:17:38;;;;;;;4.73;1.97;;;;;;;;;;6175204;23;20478;-87
2024/04/03 06:20:25;;;;;;;3.20;2.00;;;;;;;;;;6130929;23;20469;-87
2024/04/03 06:22:58;;;;;;;2.57;2.20;;;;;;;;;;6117272;23;20908;-86
2024/04/03 06:25:36;;;;;;;3.03;1.90;;;;;;;;;;6135358;23;20414;-86
2024/04/03 06:28:30;;;;;;;7.87;2.53;;;;;;;;;;6108729;23;20755;-87
2024/04/03 06:31:09;;;;;;;3.83;2.30;;;;;;;;;;6135310;23;20434;-87
2024/04/03 06:33:40;;;;;;;2.17;1.50;;;;;;;;;;6112677;23;20407;-86
2024/04/03 06:36:54;;;;;;;;;;;;;;;;;;;;;
2024/04/03 06:39:22;;;;;;;4.53;1.97;;;;;;;;;;6134916;23;20411;-85
2024/04/03 06:41:50;;;;;;;4.73;2.73;;;;;;;;;;6158106;23;20423;-86
2024/04/03 06:44:47;;;;;;;8.40;2.33;;;;;;;;;;6141579;23;20398;-88
2024/04/03 06:47:16;;;;;;;4.03;2.17;;;;;;;;;;6109069;23;20407;-87
2024/04/03 06:49:59;;;;;;;5.10;2.00;;;;;;;;;;6107283;23;20414;-88
2024/04/03 06:52:53;;;;;;;4.00;1.70;;;;;;;;;;6123049;23;20407;-88
2024/04/03 06:58:44;;;;;;;4.10;1.80;;;;;;;;;;6110002;23;20455;-89
2024/04/03 07:01:26;;;;;;;3.10;1.67;;;;;;;;;;6129995;23;20518;-88
2024/04/03 07:04:10;;;;;;;5.63;2.00;;;;;;;;;;6133011;23;20499;-84
2024/04/03 07:10:20;;;;;;;4.27;1.67;;;;;;;;;;6061493;23;20432;-86
2024/04/03 07:13:01;;;;;;;3.43;1.53;;;;;;;;;;6100585;23;20403;-85
2024/04/03 07:15:53;;;;;;;1.87;1.47;;;;;;;;;;6111509;23;20411;-86
2024/04/03 07:18:25;;;;;;;3.67;1.20;;;;;;;;;;6113240;23;20418;-86
2024/04/03 07:21:14;;;;;;;4.73;1.23;;;;;;;;;;6149942;23;20470;-87
2024/04/03 07:23:58;;;;;;;4.23;2.00;;;;;;;;;;6128851;23;20499;-86
2024/04/03 07:26:27;;;;;;;2.93;1.53;;;;;;;;;;6167636;23;20469;-86
2024/04/03 07:29:40;;;;;;;3.77;1.37;;;;;;;;;;6102953;23;20408;-87
2024/04/03 07:35:22;;;;;;;5.27;1.70;;;;;;;;;;6109570;23;20435;-85
2024/04/03 07:41:33;;;;;;;4.17;1.27;;;;;;;;;;6059066;23;20454;-86
2024/04/03 07:44:03;;;;;;;3.13;1.57;;;;;;;;;;6113831;23;20499;-88
2024/04/03 07:46:34;;;;;;;6.43;1.50;;;;;;;;;;6136920;23;20414;-85
2024/04/03 07:52:31;;;;;;;;;;;;;;;;;;;;;
2024/04/03 07:55:37;;;;;;;3.70;1.40;;;;;;;;;;6136871;23;20421;-87
2024/04/03 07:58:34;;;;;;;2.80;1.57;;;;;;;;;;6051679;23;20422;-86
2024/04/03 08:01:28;;;;;;;2.03;1.30;;;;;;;;;;6080847;23;20607;-87
2024/04/03 08:04:09;;;;;;;5.30;2.20;;;;;;;;;;6070371;23;20417;-87
2024/04/03 08:06:45;;;;;;;3.20;1.30;;;;;;;;;;6121969;23;20395;-87
2024/04/03 08:09:27;;;;;;;2.70;1.13;;;;;;;;;;6118102;23;20411;-88
2024/04/03 08:12:15;;;;;;;1.70;1.60;;;;;;;;;;6112540;23;20423;-86
2024/04/03 08:14:56;;;;;;;3.87;2.10;;;;;;;;;;6114092;23;20415;-87
2024/04/03 08:20:58;;;;;;;2.30;1.30;;;;;;;;;;6166690;23;20441;-87
2024/04/03 08:23:41;;;;;;;3.10;1.70;;;;;;;;;;6120319;23;20410;-87
2024/04/03 08:26:38;;;;;;;2.33;1.53;;;;;;;;;;6122379;23;20406;-88
2024/04/03 08:29:08;;;;;;;1.13;1.03;;;;;;;;;;6120282;23;20401;-86
2024/04/03 08:31:38;;;;;;;3.67;1.33;;;;;;;;;;6121208;23;20422;-87
2024/04/03 08:34:16;;;;;;;5.63;1.37;;;;;;;;;;6116221;23;20835;-86
2024/04/03 08:37:10;;;;;;;;;;;;;;;;;;;;;
2024/04/03 08:39:42;;;;;;;3.47;1.33;;;;;;;;;;6162165;23;20446;-85
2024/04/03 08:42:12;;;;;;;2.03;1.30;;;;;;;;;;6117306;23;20403;-86
2024/04/03 08:45:00;;;;;;;3.10;1.50;;;;;;;;;;6132551;23;20506;-88
2024/04/03 08:47:27;;;;;;;3.73;1.40;;;;;;;;;;6133609;23;20454;-86
2024/04/03 08:50:16;;;;;;;1.63;1.27;;;;;;;;;;6152419;23;20423;-85
2024/04/03 08:53:27;;;;;;;1.27;1.10;;;;;;;;;;6143527;23;20403;-86
2024/04/03 08:56:00;;;;;;;5.93;1.70;;;;;;;;;;6109239;23;20468;-85
2024/04/03 09:01:31;;;;;;;1.63;1.20;;;;;;;;;;6138201;23;20500;-85
2024/04/03 09:04:16;;;;;;;4.30;1.07;;;;;;;;;;6112007;23;20407;-86
2024/04/03 09:07:04;;;;;;;3.10;1.23;;;;;;;;;;6113705;23;20682;-85
2024/04/03 09:09:41;;;;;;;1.80;1.27;;;;;;;;;;6108966;23;20399;-85
2024/04/03 09:18:11;;;;;;;1.57;1.20;;;;;;;;;;6162923;23;20413;-86
2024/04/03 09:20:41;;;;;;;1.27;1.17;;;;;;;;;;6112681;23;20447;-85
2024/04/03 09:23:17;;;;;;;3.70;3.20;;;;;;;;;;6164249;23;20911;-85
2024/04/03 09:25:48;;;;;;;1.60;1.50;;;;;;;;;;6122450;23;20425;-87
2024/04/03 09:28:45;;;;;;;;;;;;;;;;;;;;;
2024/04/03 09:31:34;;;;;;;2.40;1.30;;;;;;;;;;6181240;23;20498;-87
2024/04/03 09:34:05;;;;;;;2.20;1.03;;;;;;;;;;6123431;23;20401;-85
2024/04/03 09:36:35;;;;;;;1.67;1.10;;;;;;;;;;6113535;23;20448;-85
2024/04/03 09:39:16;;;;;;;1.00;0.90;;;;;;;;;;6116191;23;20399;-86
2024/04/03 09:41:50;;;;;;;2.33;1.00;;;;;;;;;;6150120;23;20434;-86
2024/04/03 09:44:28;;;;;;;0.77;0.60;;;;;;;;;;6130380;23;20462;-84
2024/04/03 09:47:17;;;;;;;0.77;0.70;;;;;;;;;;6129083;23;20471;-85
2024/04/03 09:49:55;;;;;;;0.60;0.60;;;;;;;;;;6131859;23;20466;-87
2024/04/03 09:52:31;;;;;;;3.27;1.37;;;;;;;;;;6157099;23;20471;-86
2024/04/03 09:55:06;;;;;;;0.90;0.87;;;;;;;;;;6133233;23;20446;-87
2024/04/03 10:04:43;;;;;;;1.60;0.70;;;;;;;;;;6181810;23;20378;-83
2024/04/03 10:07:30;;;;;;;1.07;0.80;;;;;;;;;;6088058;23;20399;-84
2024/04/03 10:10:03;;;;;;;1.13;0.80;;;;;;;;;;6115784;23;20423;-85
2024/04/03 10:13:02;;;;;;;1.30;0.73;;;;;;;;;;6143713;23;20395;-86
2024/04/03 10:15:44;;;;;;;1.93;1.70;;;;;;;;;;6148652;23;20399;-85
2024/04/03 10:18:33;;;;;;;0.57;0.57;;;;;;;;;;6171947;23;20399;-85
2024/04/03 10:21:00;;;;;;;0.87;0.67;;;;;;;;;;6159181;23;20441;-86
2024/04/03 10:24:00;;;;;;;0.60;0.60;;;;;;;;;;6178399;23;20485;-85
2024/04/03 10:26:33;;;;;;;0.97;0.70;;;;;;;;;;6211295;23;20448;-87
2024/04/03 10:29:18;;;;;;;1.13;0.67;;;;;;;;;;6172205;23;20762;-85
2024/04/03 10:32:01;;;;;;;1.17;0.60;;;;;;;;;;6133596;23;20440;-87
2024/04/03 10:34:27;;;;;;;0.70;0.70;;;;;;;;;;6153303;23;20402;-88
2024/04/03 10:37:10;;;;;;;0.50;0.50;;;;;;;;;;6156870;23;20408;-88
2024/04/03 10:39:37;;;;;;;0.80;0.70;;;;;;;;;;6149579;23;20868;-88
2024/04/03 10:42:08;;;;;;;2.07;0.70;;;;;;;;;;6152732;23;20452;-88
2024/04/03 10:44:41;;;;;;;1.53;0.67;;;;;;;;;;6147305;23;20393;-89
2024/04/03 10:47:09;;;;;;;0.67;0.67;;;;;;;;;;6147355;23;20408;-87
2024/04/03 10:49:41;;;;;;;0.70;0.70;;;;;;;;;;6139810;23;20406;-87
2024/04/03 10:52:11;;;;;;;0.80;0.70;;;;;;;;;;6147117;23;20424;-88
2024/04/03 10:54:38;;;;;;;0.67;0.67;;;;;;;;;;6145917;23;20398;-88
2024/04/03 10:57:08;;;;;;;0.60;0.60;;;;;;;;;;6145999;23;20402;-88
2024/04/03 10:59:44;;;;;;;0.70;0.70;;;;;;;;;;6145221;23;20398;-86
2024/04/03 11:02:15;;;;;;;1.33;1.07;;;;;;;;;;6170803;23;20402;-86
2024/04/03 11:04:42;;;;;;;2.17;0.80;;;;;;;;;;6144278;23;20410;-86
2024/04/03 11:07:13;;;;;;;1.80;0.53;;;;;;;;;;6142720;23;20402;-86
2024/04/03 11:09:46;;;;;;;0.73;0.50;;;;;;;;;;6140458;23;20410;-86
2024/04/03 11:12:13;;;;;;;1.33;0.63;;;;;;;;;;6143653;23;20406;-86
2024/04/03 11:21:19;;;;;;;1.10;0.67;;;;;;;;;;6211981;23;20460;-91
2024/04/03 11:23:57;;;;;;;0.73;0.60;;;;;;;;;;6157394;23;20450;-85
2024/04/03 11:26:48;;;;;;;;;;;;;;;;;;;;;
2024/04/03 11:29:32;;;;;;;0.70;0.70;;;;;;;;;;6186175;23;20450;-90
2024/04/03 11:32:17;;;;;;;;;;;;;;;;;;;;;
2024/04/03 11:35:22;;;;;;;0.70;0.60;;;;;;;;;;6180348;23;20469;-88
2024/04/03 11:38:01;;;;;;;0.50;0.50;;;;;;;;;;6162177;23;20458;-91
2024/04/03 11:40:30;;;;;;;0.50;0.50;;;;;;;;;;6156923;23;20446;-89
2024/04/03 11:43:15;;;;;;;0.80;0.60;;;;;;;;;;6147028;23;20402;-88
2024/04/03 11:45:47;;;;;;;0.83;0.60;;;;;;;;;;6141736;23;20452;-86
2024/04/03 11:48:37;;;;;;;1.00;0.53;;;;;;;;;;6168531;23;20394;-87
2024/04/03 11:51:09;;;;;;;0.93;0.60;;;;;;;;;;6141545;23;20426;-87
2024/04/03 11:53:59;;;;;;;0.57;0.50;;;;;;;;;;6140992;23;20402;-86
2024/04/03 11:56:32;;;;;;;2.40;0.47;;;;;;;;;;6165351;23;20402;-86
2024/04/03 11:59:06;;;;;;;0.50;0.50;;;;;;;;;;6142339;23;20398;-86
2024/04/03 12:01:56;;;;;;;0.53;0.50;;;;;;;;;;6127881;23;20456;-86
2024/04/03 12:05:01;;;;;;;0.70;0.50;;;;;;;;;;6080953;23;20415;-87
2024/04/03 12:07:53;;;;;;;0.60;0.50;;;;;;;;;;6124524;23;20412;-86
2024/04/03 12:13:39;;;;;;;;;;;;;;;;;;;;;
2024/04/03 12:20:20;;;;;;;0.93;0.93;;;;;;;;;;6083155;23;20472;-87
2024/04/03 12:36:27;;;;;;;0.70;0.60;;;;;;;;;;6194426;23;20450;-87
2024/04/03 12:39:03;;;;;;;0.50;0.50;;;;;;;;;;6149106;23;20406;-88
2024/04/03 12:55:44;;;;;;;0.87;0.50;;;;;;;;;;6124916;23;20461;-88
2024/04/03 13:02:35;;;;;;;;;;;;;;;;;;;;;
2024/04/03 13:23:54;;;;;;;0.90;0.60;;;;;;;;;;5951270;24;20493;-89
2024/04/03 13:27:16;;;;;;;0.90;0.80;;;;;;;;;;5834239;24;20970;-88
2024/04/03 15:08:57;;;;;;;1.73;0.50;;;;;;;;;;6175538;23;20411;-87
2024/04/03 15:12:17;;;;;;;;;;;;;;;;;;;;;
2024/04/03 15:28:10;;;;;;;0.40;0.40;;;;;;;;;;6107464;23;20401;-88
2024/04/03 15:31:16;;;;;;;0.40;0.40;;;;;;;;;;6058902;23;20439;-88
2024/04/03 15:34:39;;;;;;;;;;;;;;;;;;;;;
2024/04/03 15:41:05;;;;;;;1.23;0.47;;;;;;;;;;6031611;23;20464;-89
2024/04/03 16:03:29;;;;;;;2.50;0.50;;;;;;;;;;6173463;23;20498;-88
2024/04/03 16:15:42;;;;;;;1.07;0.50;;;;;;;;;;6199098;23;20466;-87
2024/04/03 16:19:09;;;;;;;1.00;0.80;;;;;;;;;;6181776;23;20539;-87
2024/04/03 16:25:10;;;;;;;;;;;;;;;;;;;;;
2024/04/03 16:28:34;;;;;;;1.40;1.00;;;;;;;;;;6149154;23;20408;-87
2024/04/03 16:31:49;;;;;;;;;;;;;;;;;;;;;
2024/04/03 16:56:06;;;;;;;1.07;0.70;;;;;;;;;;6200171;23;20397;-88
2024/04/03 16:59:41;;;;;;;1.40;0.60;;;;;;;;;;6168294;23;20477;-86
2024/04/03 17:40:36;;;;;;;2.97;1.30;;;;;;;;;;6104139;23;20524;-87
2024/04/03 17:46:50;;;;;;;;;;;;;;;;;;;;;
2024/04/03 17:50:00;;;;;;;2.07;1.07;;;;;;;;;;5940286;24;20420;-87
2024/04/03 18:25:54;;;;;;;1.70;1.20;;;;;;;;;;6179691;23;20401;-88
2024/04/03 18:29:26;;;;;;;;;;;;;;;;;;;;;
2024/04/03 18:47:02;;;;;;;5.80;4.87;;;;;;;;;;6081777;23;20425;-86
2024/04/03 18:53:38;;;;;;;1.57;1.10;;;;;;;;;;6079049;23;20393;-89
2024/04/03 18:56:48;;;;;;;1.63;1.50;;;;;;;;;;6092018;23;20440;-88
2024/04/03 19:00:35;;;;;;;2.37;0.97;;;;;;;;;;6092948;23;20370;-87
2024/04/03 19:06:54;;;;;;;;;;;;;;;;;;;;;
2024/04/03 19:17:10;;;;;;;1.77;1.37;;;;;;;;;;5928767;24;20419;-88
2024/04/03 19:23:11;;;;;;;3.37;1.70;;;;;;;;;;6198044;23;20465;-87
2024/04/03 19:26:37;;;;;;;;;;;;;;;;;;;;;
2024/04/03 19:33:07;;;;;;;1.80;1.57;;;;;;;;;;6168076;23;20438;-89
2024/04/03 19:35:53;;;;;;;2.10;1.27;;;;;;;;;;6116952;23;20411;-88
2024/04/03 19:38:57;;;;;;;1.80;1.20;;;;;;;;;;6048635;23;20415;-88
2024/04/03 19:48:27;;;;;;;;;;;;;;;;;;;;;
2024/04/03 20:14:08;;;;;;;;;;;;;;;;;;;;;
2024/04/03 20:17:45;;;;;;;;;;;;;;;;;;;;;
2024/04/03 20:37:34;;;;;;;3.43;1.40;;;;;;;;;;6107176;23;20380;-87
2024/04/03 20:40:32;;;;;;;1.33;0.90;;;;;;;;;;6057050;23;20409;-87
2024/04/03 20:50:31;;;;;;;2.30;0.90;;;;;;;;;;6151714;23;20409;-87
2024/04/03 20:53:19;;;;;;;2.80;1.20;;;;;;;;;;6123315;23;20429;-87
2024/04/03 21:33:38;;;;;;;2.40;1.20;;;;;;;;;;6184874;23;20406;-90
2024/04/03 21:57:48;;;;;;;2.53;0.90;;;;;;;;;;5969827;23;20411;-90
2024/04/03 22:27:35;;;;;;;1.57;0.70;;;;;;;;;;6021232;23;20407;-88
2024/04/03 22:33:46;;;;;;;2.07;0.90;;;;;;;;;;6181550;23;20407;-89
2024/04/03 22:37:16;;;;;;;1.23;0.70;;;;;;;;;;6173403;23;20818;-87
2024/04/03 22:40:12;;;;;;;1.30;0.80;;;;;;;;;;6102643;23;20435;-90
2024/04/03 22:43:29;;;;;;;1.63;1.07;;;;;;;;;;6085801;23;20528;-89
2024/04/03 22:56:27;;;;;;;2.20;1.10;;;;;;;;;;6025094;23;20418;-88
2024/04/03 22:59:29;;;;;;;3.03;0.83;;;;;;;;;;6044828;23;20408;-88
2024/04/03 23:02:54;;;;;;;;;;;;;;;;;;;;;
2024/04/03 23:09:47;;;;;;;;;;;;;;;;;;;;;
2024/04/03 23:23:05;;;;;;;;;;;;;;;;;;;;;
2024/04/03 23:25:55;;;;;;;2.30;1.27;;;;;;;;;;5987049;24;20445;-87
2024/04/03 23:36:29;;;;;;;2.03;1.17;;;;;;;;;;5904905;24;21052;-88
2024/04/03 23:52:57;;;;;;;2.00;1.07;;;;;;;;;;6202420;23;20460;-88
2024/04/03 23:55:19;;;;;;;2.43;0.83;;;;;;;;;;6160545;23;20413;-87
